Time;durP1;ratioP1;P1;durP2;ratioP2;P2;SDS_P1;SDS_P2;PMS_P1;PMS_P2;Temp;Humidity;BMP_temperature;BMP_pressure;BME280_temperature;BME280_humidity;BME280_pressure;Samples;Min_cycle;Max_cycle;Signal;HPM_P1;HPM_P2
2023/06/13 04:02:47;;;;;;;8.97;4.37;;;12.70;97.30;;;;;;4922251;29;20598;-86
2023/06/13 04:05:13;;;;;;;2.40;2.20;;;12.70;97.30;;;;;;4931136;29;20952;-84
2023/06/13 04:07:39;;;;;;;3.50;2.90;;;12.70;97.30;;;;;;4930660;29;20175;-85
2023/06/13 04:10:05;;;;;;;2.90;2.60;;;12.70;97.30;;;;;;4932329;29;20992;-83
2023/06/13 04:12:31;;;;;;;5.83;3.30;;;12.80;97.30;;;;;;4950512;29;20199;-84
2023/06/13 04:14:57;;;;;;;2.80;2.50;;;12.80;97.30;;;;;;4953041;28;20415;-86
2023/06/13 04:17:23;;;;;;;1.97;1.87;;;12.80;97.30;;;;;;4947366;29;20466;-81
2023/06/13 04:19:49;;;;;;;5.73;3.83;;;12.90;97.30;;;;;;4955060;29;20443;-85
2023/06/13 04:22:16;;;;;;;3.97;3.03;;;12.90;97.30;;;;;;4956231;29;20441;-84
2023/06/13 04:24:50;;;;;;;2.90;1.73;;;13.00;97.30;;;;;;4957657;23;20294;-89
2023/06/13 04:27:31;;;;;;;1.87;1.77;;;13.00;97.30;;;;;;4928871;29;20455;-92
2023/06/13 04:29:56;;;;;;;4.47;3.13;;;13.00;97.30;;;;;;4935232;29;20431;-89
2023/06/13 04:32:28;;;;;;;2.50;2.03;;;13.10;97.30;;;;;;4931120;29;20495;-91
2023/06/13 04:34:58;;;;;;;4.47;3.00;;;13.10;97.30;;;;;;4925923;29;20235;-93
2023/06/13 04:37:48;;;;;;;2.30;2.10;;;13.20;97.30;;;;;;4924537;29;20913;-91
2023/06/13 04:40:17;;;;;;;3.33;1.57;;;13.20;97.30;;;;;;4915966;29;21019;-93
2023/06/13 04:42:51;;;;;;;9.03;3.20;;;13.30;97.30;;;;;;4915594;29;20927;-89
2023/06/13 04:45:20;;;;;;;2.87;2.67;;;13.30;97.30;;;;;;4924733;29;20479;-89
2023/06/13 04:47:47;;;;;;;2.83;2.20;;;13.40;97.30;;;;;;4927185;29;20455;-93
2023/06/13 04:50:21;;;;;;;7.37;4.90;;;13.40;97.30;;;;;;4931887;29;20518;-89
2023/06/13 04:52:53;;;;;;;2.80;2.57;;;13.50;97.30;;;;;;4929388;29;20506;-92
2023/06/13 04:55:21;;;;;;;2.77;2.57;;;13.50;97.30;;;;;;4915706;29;20450;-91
2023/06/13 04:57:47;;;;;;;3.53;2.93;;;13.60;97.30;;;;;;4918846;29;20567;-92
2023/06/13 05:00:20;;;;;;;5.33;3.57;;;13.60;97.30;;;;;;4929119;29;20424;-88
2023/06/13 05:02:46;;;;;;;5.10;2.97;;;13.60;97.30;;;;;;4931881;29;20941;-91
2023/06/13 05:05:18;;;;;;;2.73;2.53;;;13.70;97.30;;;;;;4926929;29;20455;-89
2023/06/13 05:07:47;;;;;;;8.60;5.00;;;13.70;97.30;;;;;;4924466;29;20192;-93
2023/06/13 05:10:26;;;;;;;2.73;2.30;;;13.80;97.30;;;;;;4924031;29;20511;-91
2023/06/13 05:13:01;;;;;;;4.07;3.13;;;13.90;97.30;;;;;;4932228;29;20435;-92
2023/06/13 05:15:26;;;;;;;2.30;2.10;;;13.90;97.30;;;;;;4924169;29;20466;-93
2023/06/13 05:17:59;;;;;;;8.20;2.80;;;14.00;97.30;;;;;;4929143;29;20542;-93
2023/06/13 05:20:27;;;;;;;5.50;3.00;;;14.00;97.30;;;;;;4937380;29;20247;-90
2023/06/13 05:22:56;;;;;;;3.57;1.83;;;14.10;97.30;;;;;;4935506;29;20855;-92
2023/06/13 05:25:27;;;;;;;3.53;3.33;;;14.10;97.30;;;;;;4922945;29;20838;-89
2023/06/13 05:27:55;;;;;;;4.90;4.17;;;14.10;97.30;;;;;;4924100;29;20439;-91
2023/06/13 05:30:26;;;;;;;3.93;3.73;;;14.20;97.30;;;;;;4931079;29;20465;-89
2023/06/13 05:32:59;;;;;;;3.27;2.80;;;14.20;97.30;;;;;;4933573;29;20570;-92
2023/06/13 05:35:27;;;;;;;2.47;2.33;;;14.30;97.30;;;;;;4927604;29;20439;-90
2023/06/13 05:37:56;;;;;;;3.37;2.93;;;14.40;97.30;;;;;;4918056;29;20520;-88
2023/06/13 05:40:30;;;;;;;4.20;2.30;;;14.40;97.30;;;;;;4916826;29;20416;-88
2023/06/13 05:42:58;;;;;;;5.17;2.93;;;14.50;97.30;;;;;;4932842;29;20434;-92
2023/06/13 05:45:26;;;;;;;3.00;2.80;;;14.60;97.30;;;;;;4927362;29;20436;-88
2023/06/13 05:48:11;;;;;;;;;;;;;;;;;;;;;
2023/06/13 05:50:37;;;;;;;2.70;2.50;;;14.70;97.30;;;;;;4936970;29;20462;-88
2023/06/13 05:53:19;;;;;;;3.10;2.90;;;14.80;97.30;;;;;;4928404;29;20518;-87
2023/06/13 05:55:47;;;;;;;3.40;2.70;;;14.90;97.30;;;;;;4929286;29;20586;-88
2023/06/13 05:58:26;;;;;;;2.33;2.13;;;15.00;97.30;;;;;;4916618;29;20973;-87
2023/06/13 06:00:58;;;;;;;22.03;3.43;;;15.10;97.30;;;;;;4922883;29;20479;-90
2023/06/13 06:03:27;;;;;;;1.87;1.77;;;15.20;97.30;;;;;;4925190;29;20444;-88
2023/06/13 06:05:57;;;;;;;2.20;2.03;;;15.30;97.30;;;;;;4927940;29;20500;-90
2023/06/13 06:08:25;;;;;;;3.10;1.80;;;15.40;97.30;;;;;;4931481;29;20448;-87
2023/06/13 06:10:53;;;;;;;2.30;2.10;;;15.50;97.30;;;;;;4923628;29;20512;-90
2023/06/13 06:13:19;;;;;;;4.97;2.50;;;15.60;97.30;;;;;;4933835;29;20459;-88
2023/06/13 06:15:47;;;;;;;3.53;3.07;;;15.70;97.30;;;;;;4926990;29;20444;-90
2023/06/13 06:18:20;;;;;;;2.87;2.40;;;15.90;97.30;;;;;;4931900;29;20216;-91
2023/06/13 06:20:46;;;;;;;9.10;2.70;;;16.00;97.30;;;;;;4930673;29;20830;-87
2023/06/13 06:23:16;;;;;;;3.27;2.80;;;16.10;97.30;;;;;;4918359;29;20431;-87
2023/06/13 06:25:47;;;;;;;9.33;3.20;;;16.30;97.30;;;;;;4927494;29;20232;-90
2023/06/13 06:28:17;;;;;;;5.07;2.77;;;16.40;97.30;;;;;;4925155;29;20443;-88
2023/06/13 06:30:55;;;;;;;2.20;1.77;;;16.50;97.30;;;;;;4935665;29;20534;-88
2023/06/13 06:33:25;;;;;;;1.53;1.43;;;16.60;97.30;;;;;;4938379;29;20424;-92
2023/06/13 06:35:58;;;;;;;1.77;1.40;;;16.70;97.30;;;;;;4938194;29;20459;-87
2023/06/13 06:38:26;;;;;;;2.70;2.50;;;16.80;97.30;;;;;;4925768;29;20478;-90
2023/06/13 06:40:57;;;;;;;3.50;2.13;;;16.90;97.00;;;;;;4924182;29;20490;-91
2023/06/13 06:43:30;;;;;;;2.53;2.10;;;17.00;96.40;;;;;;4930866;29;20873;-88
2023/06/13 06:45:58;;;;;;;3.67;2.20;;;17.10;95.90;;;;;;4923579;29;20948;-90
2023/06/13 06:48:26;;;;;;;3.00;2.43;;;17.20;95.80;;;;;;4930364;29;20429;-86
2023/06/13 06:50:56;;;;;;;5.43;3.13;;;17.40;95.40;;;;;;4915540;29;20431;-90
2023/06/13 06:53:29;;;;;;;3.87;3.40;;;17.40;94.80;;;;;;4926767;29;20474;-90
2023/06/13 06:55:57;;;;;;;2.80;2.23;;;17.60;94.20;;;;;;4927300;29;20929;-89
2023/06/13 06:58:27;;;;;;;4.13;2.63;;;17.70;93.70;;;;;;4926732;29;20463;-88
2023/06/13 07:00:58;;;;;;;2.80;2.60;;;17.80;93.40;;;;;;4917635;29;20432;-87
2023/06/13 07:03:26;;;;;;;9.77;3.73;;;17.90;93.20;;;;;;4926563;29;20435;-86
2023/06/13 07:05:59;;;;;;;2.23;2.07;;;18.00;91.90;;;;;;4925068;29;20534;-89
2023/06/13 07:08:27;;;;;;;1.53;1.53;;;18.10;91.10;;;;;;4925103;29;20470;-86
2023/06/13 07:10:55;;;;;;;2.20;1.97;;;18.30;91.30;;;;;;4925653;29;20726;-88
2023/06/13 07:13:27;;;;;;;6.63;2.43;;;18.40;91.30;;;;;;4914024;29;20853;-88
2023/06/13 07:15:56;;;;;;;4.40;2.90;;;18.50;89.50;;;;;;4931429;29;20486;-93
2023/06/13 07:18:29;;;;;;;3.37;2.53;;;18.70;87.40;;;;;;4917065;29;20499;-91
2023/06/13 07:20:57;;;;;;;5.00;3.07;;;18.80;85.40;;;;;;4934027;29;20419;-90
2023/06/13 07:23:27;;;;;;;2.50;1.87;;;19.00;84.10;;;;;;4924730;29;20431;-87
2023/06/13 07:26:00;;;;;;;2.03;1.90;;;19.20;83.50;;;;;;4931465;29;20522;-89
2023/06/13 07:28:28;;;;;;;2.00;1.77;;;19.40;83.60;;;;;;4928601;29;20454;-90
2023/06/13 07:30:56;;;;;;;2.23;2.10;;;19.50;82.90;;;;;;4917679;29;20813;-88
2023/06/13 07:33:22;;;;;;;2.40;2.20;;;19.60;83.50;;;;;;4919850;29;20416;-87
2023/06/13 07:35:47;;;;;;;2.80;1.90;;;19.70;83.80;;;;;;4924717;29;20501;-91
2023/06/13 07:38:20;;;;;;;7.17;3.80;;;19.80;81.60;;;;;;4923352;29;20203;-87
2023/06/13 07:40:48;;;;;;;3.60;2.97;;;20.00;82.60;;;;;;4925235;29;20177;-89
2023/06/13 07:43:16;;;;;;;2.37;2.20;;;20.10;82.50;;;;;;4916105;29;20801;-88
2023/06/13 07:45:49;;;;;;;2.30;1.90;;;20.20;83.70;;;;;;4924385;29;20451;-91
2023/06/13 07:48:17;;;;;;;4.07;3.60;;;20.30;84.60;;;;;;4918095;29;20439;-90
2023/06/13 07:50:46;;;;;;;2.20;2.00;;;20.40;83.50;;;;;;4932868;29;20423;-87
2023/06/13 07:53:17;;;;;;;3.00;2.10;;;20.60;81.60;;;;;;4921102;29;20443;-88
2023/06/13 07:55:46;;;;;;;4.13;2.43;;;20.70;79.20;;;;;;4920056;29;20895;-87
2023/06/13 07:58:19;;;;;;;2.90;2.47;;;20.80;79.30;;;;;;4916058;29;20460;-88
2023/06/13 08:00:47;;;;;;;2.13;1.83;;;21.00;78.10;;;;;;4925682;29;20427;-86
2023/06/13 08:03:20;;;;;;;2.13;1.77;;;21.10;78.40;;;;;;4919939;29;20522;-87
2023/06/13 08:05:48;;;;;;;2.40;1.93;;;21.20;78.10;;;;;;4919643;29;20442;-90
2023/06/13 08:08:16;;;;;;;2.87;2.70;;;21.20;77.80;;;;;;4923309;29;20515;-87
2023/06/13 08:10:46;;;;;;;2.47;2.20;;;21.20;77.70;;;;;;4932698;29;20962;-91
2023/06/13 08:13:12;;;;;;;1.77;1.70;;;21.30;78.20;;;;;;4918007;29;20457;-90
2023/06/13 08:15:37;;;;;;;3.07;1.70;;;21.40;77.80;;;;;;4922490;29;20448;-90
2023/06/13 08:18:07;;;;;;;2.43;2.33;;;21.60;74.80;;;;;;4929723;29;20208;-87
2023/06/13 08:20:37;;;;;;;2.80;2.60;;;21.70;75.70;;;;;;4920080;29;20834;-87
2023/06/13 08:23:05;;;;;;;2.57;2.37;;;21.90;76.40;;;;;;4944523;29;20447;-90
2023/06/13 08:25:38;;;;;;;5.13;2.17;;;22.10;75.10;;;;;;4934973;29;20488;-92
2023/06/13 08:28:07;;;;;;;1.80;1.60;;;22.20;75.50;;;;;;4945617;29;20423;-89
2023/06/13 08:30:36;;;;;;;3.80;3.37;;;22.40;76.00;;;;;;4924746;29;20891;-87
2023/06/13 08:33:08;;;;;;;4.77;2.80;;;22.40;75.40;;;;;;4928325;29;20953;-92
2023/06/13 08:35:36;;;;;;;1.97;1.87;;;22.50;75.10;;;;;;4934987;29;20447;-90
2023/06/13 08:38:11;;;;;;;2.77;2.57;;;22.50;75.70;;;;;;4929671;29;20470;-91
2023/06/13 08:40:37;;;;;;;4.00;3.00;;;22.50;76.30;;;;;;4923008;29;20420;-90
2023/06/13 08:43:06;;;;;;;4.37;2.73;;;22.60;78.00;;;;;;4926356;29;20451;-91
2023/06/13 08:45:37;;;;;;;4.57;3.03;;;22.60;77.60;;;;;;4936223;29;20208;-90
2023/06/13 08:48:10;;;;;;;13.50;3.37;;;22.70;77.90;;;;;;4928598;29;20432;-90
2023/06/13 08:50:37;;;;;;;5.73;2.73;;;22.80;78.20;;;;;;4928673;29;20439;-90
2023/06/13 08:53:06;;;;;;;2.43;2.13;;;22.80;78.90;;;;;;4926056;29;20869;-92
2023/06/13 08:55:40;;;;;;;2.87;2.67;;;22.90;78.30;;;;;;4930781;29;20443;-88
2023/06/13 08:58:10;;;;;;;3.07;2.20;;;22.90;77.90;;;;;;4936106;29;20556;-92
2023/06/13 09:00:40;;;;;;;2.40;2.23;;;22.90;78.60;;;;;;4924729;29;20488;-89
2023/06/13 09:03:17;;;;;;;3.10;2.90;;;22.90;78.60;;;;;;4925140;29;20495;-92
2023/06/13 09:05:50;;;;;;;6.03;3.57;;;22.90;78.50;;;;;;4929999;29;20443;-91
2023/06/13 09:08:28;;;;;;;3.93;3.10;;;22.90;78.80;;;;;;4933709;29;20431;-89
2023/06/13 09:10:58;;;;;;;3.37;2.80;;;22.90;75.20;;;;;;4931900;29;20822;-92
2023/06/13 09:13:28;;;;;;;2.50;2.33;;;23.00;72.60;;;;;;4932558;29;20428;-92
2023/06/13 09:15:57;;;;;;;2.37;2.17;;;23.00;72.00;;;;;;4936282;29;20482;-93
2023/06/13 09:18:56;;;;;;;2.10;1.53;;;23.10;69.80;;;;;;4930517;29;20527;-92
2023/06/13 09:21:40;;;;;;;1.93;1.83;;;23.20;69.70;;;;;;4935355;29;20432;-93
2023/06/13 09:24:09;;;;;;;1.90;1.80;;;23.20;69.10;;;;;;4933126;29;20475;-93
2023/06/13 09:26:37;;;;;;;9.20;2.97;;;23.30;69.70;;;;;;4937685;29;20589;-91
2023/06/13 09:29:06;;;;;;;2.30;2.10;;;23.50;68.30;;;;;;4924475;29;20663;-92
2023/06/13 09:31:37;;;;;;;2.50;2.00;;;23.50;68.70;;;;;;4933872;29;20436;-93
2023/06/13 09:34:16;;;;;;;3.70;2.30;;;23.60;69.80;;;;;;4926956;29;21009;-93
2023/06/13 09:37:00;;;;;;;2.97;2.87;;;23.60;70.40;;;;;;4922713;29;20490;-91
2023/06/13 09:39:31;;;;;;;2.87;2.70;;;23.70;69.60;;;;;;4927848;29;20526;-93
2023/06/13 09:41:59;;;;;;;1.97;1.60;;;23.80;69.70;;;;;;4928277;29;20431;-93
2023/06/13 09:44:27;;;;;;;2.43;2.13;;;23.80;69.80;;;;;;4921302;29;20451;-90
2023/06/13 09:46:56;;;;;;;1.77;1.77;;;23.90;69.00;;;;;;4920690;29;20489;-92
2023/06/13 09:49:30;;;;;;;3.10;2.50;;;24.00;69.50;;;;;;4934442;29;20446;-92
2023/06/13 09:51:59;;;;;;;2.23;2.03;;;24.10;68.40;;;;;;4929138;29;20824;-87
2023/06/13 09:54:36;;;;;;;1.93;1.90;;;24.20;67.30;;;;;;4922687;29;20519;-89
2023/06/13 09:57:10;;;;;;;3.47;2.03;;;24.20;66.00;;;;;;4916097;29;20459;-91
2023/06/13 09:59:36;;;;;;;4.83;2.30;;;24.10;66.10;;;;;;4930369;29;20451;-89
2023/06/13 10:02:09;;;;;;;3.47;2.20;;;24.10;66.50;;;;;;4924246;29;20420;-92
2023/06/13 10:04:37;;;;;;;2.43;2.00;;;24.10;67.10;;;;;;4930704;29;20243;-91
2023/06/13 10:07:08;;;;;;;2.73;2.37;;;24.10;66.50;;;;;;4923878;29;20479;-89
2023/06/13 10:09:36;;;;;;;2.97;2.30;;;24.20;66.80;;;;;;4935024;29;20518;-87
2023/06/13 10:12:10;;;;;;;1.63;1.57;;;24.30;68.00;;;;;;4923403;29;20476;-89
2023/06/13 10:14:49;;;;;;;4.40;2.47;;;24.50;67.50;;;;;;4920352;29;20824;-91
2023/06/13 10:17:18;;;;;;;2.13;1.63;;;24.60;66.30;;;;;;4936795;29;20423;-89
2023/06/13 10:19:59;;;;;;;1.47;1.40;;;24.60;66.10;;;;;;4935350;29;20424;-91
2023/06/13 10:22:27;;;;;;;5.80;2.97;;;24.50;65.50;;;;;;4936556;29;20458;-92
2023/06/13 10:24:54;;;;;;;6.10;3.97;;;24.40;66.10;;;;;;4960952;23;20479;-85
2023/06/13 10:27:21;;;;;;;3.13;2.80;;;24.20;66.00;;;;;;4943590;29;20428;-85
2023/06/13 10:29:57;;;;;;;1.93;1.80;;;24.20;65.90;;;;;;4950765;28;20426;-86
2023/06/13 10:32:32;;;;;;;2.50;2.20;;;24.10;66.40;;;;;;4941780;29;20477;-85
2023/06/13 10:35:22;;;;;;;2.50;2.03;;;24.10;66.00;;;;;;4946639;29;20437;-83
2023/06/13 10:38:09;;;;;;;2.13;1.97;;;24.20;66.30;;;;;;4948565;29;20459;-83
2023/06/13 10:40:53;;;;;;;4.50;2.00;;;24.30;65.40;;;;;;4943267;29;20434;-83
2023/06/13 10:43:23;;;;;;;6.60;3.63;;;24.20;66.10;;;;;;4939165;29;20573;-85
2023/06/13 10:45:52;;;;;;;3.27;2.70;;;24.20;66.60;;;;;;4937671;29;20443;-83
2023/06/13 10:48:33;;;;;;;2.60;2.30;;;24.10;66.00;;;;;;4949566;28;20497;-84
2023/06/13 10:50:59;;;;;;;1.87;1.80;;;24.00;66.90;;;;;;4935389;29;20439;-84
2023/06/13 10:53:27;;;;;;;1.97;1.80;;;23.90;67.10;;;;;;4945973;29;20810;-85
2023/06/13 10:55:59;;;;;;;2.90;2.30;;;23.90;68.10;;;;;;4934253;29;20363;-85
2023/06/13 10:58:25;;;;;;;3.23;1.97;;;24.10;66.60;;;;;;4949872;28;20851;-85
2023/06/13 11:00:50;;;;;;;2.80;2.10;;;24.30;67.30;;;;;;4953060;29;20423;-85
2023/06/13 11:03:16;;;;;;;2.90;2.70;;;24.50;67.00;;;;;;4942517;29;20192;-84
2023/06/13 11:05:45;;;;;;;2.20;2.00;;;24.70;67.00;;;;;;4940938;29;20214;-85
2023/06/13 11:08:14;;;;;;;4.17;2.73;;;24.80;65.90;;;;;;4945257;29;20746;-86
2023/06/13 11:10:45;;;;;;;13.07;2.57;;;24.80;65.60;;;;;;4936712;29;20438;-84
2023/06/13 11:13:25;;;;;;;3.33;1.87;;;24.70;66.00;;;;;;4947312;28;20782;-88
2023/06/13 11:15:54;;;;;;;2.40;2.20;;;24.50;65.40;;;;;;4941900;29;20446;-84
2023/06/13 11:18:20;;;;;;;3.20;1.93;;;24.30;66.10;;;;;;4950898;29;20977;-86
2023/06/13 11:20:49;;;;;;;5.07;2.90;;;24.20;66.10;;;;;;4948044;29;20446;-82
2023/06/13 11:23:48;;;;;;;3.73;2.27;;;24.10;66.30;;;;;;4949509;29;20653;-86
2023/06/13 11:26:19;;;;;;;1.80;1.73;;;24.00;66.80;;;;;;4944446;29;20467;-85
2023/06/13 11:28:46;;;;;;;4.57;2.20;;;23.90;67.00;;;;;;4947869;29;20443;-85
2023/06/13 11:31:13;;;;;;;5.33;2.83;;;23.90;66.40;;;;;;4935505;29;20432;-85
2023/06/13 11:33:45;;;;;;;2.13;1.97;;;23.80;67.30;;;;;;4933100;29;20428;-85
2023/06/13 11:36:11;;;;;;;3.23;2.57;;;23.70;67.20;;;;;;4944607;29;20829;-85
2023/06/13 11:38:40;;;;;;;2.63;1.90;;;23.70;67.60;;;;;;4947228;29;20463;-85
2023/06/13 11:41:06;;;;;;;4.20;2.83;;;23.70;68.20;;;;;;4939671;29;20233;-85
2023/06/13 11:43:33;;;;;;;2.63;2.50;;;23.70;68.10;;;;;;4943737;29;20515;-85
2023/06/13 11:46:00;;;;;;;1.60;1.50;;;23.80;68.20;;;;;;4938721;29;20203;-86
2023/06/13 11:48:26;;;;;;;1.97;1.33;;;23.80;68.10;;;;;;4940036;29;20432;-85
2023/06/13 11:50:51;;;;;;;5.53;2.90;;;23.90;69.00;;;;;;4948977;29;20415;-85
2023/06/13 11:53:18;;;;;;;2.93;2.57;;;24.10;68.00;;;;;;4936821;29;20451;-85
2023/06/13 11:55:44;;;;;;;4.07;2.00;;;24.10;69.30;;;;;;4932291;29;20234;-85
2023/06/13 11:58:10;;;;;;;2.47;1.70;;;24.30;68.60;;;;;;4941587;29;20454;-84
2023/06/13 12:00:54;;;;;;;4.73;2.00;;;24.50;68.70;;;;;;4944163;29;20956;-85
2023/06/13 12:03:22;;;;;;;2.43;2.23;;;24.60;68.20;;;;;;4937579;29;20458;-84
2023/06/13 12:05:48;;;;;;;3.90;2.50;;;24.70;67.30;;;;;;4935901;29;20451;-86
2023/06/13 12:08:17;;;;;;;3.13;2.00;;;24.80;66.60;;;;;;4938896;29;20451;-85
2023/06/13 12:10:48;;;;;;;1.77;1.67;;;24.80;66.40;;;;;;4939325;29;20639;-86
2023/06/13 12:13:17;;;;;;;3.50;2.07;;;24.90;66.00;;;;;;4933214;29;20490;-85
2023/06/13 12:15:43;;;;;;;1.70;1.60;;;24.90;65.80;;;;;;4937740;29;20443;-85
2023/06/13 12:18:09;;;;;;;3.97;2.23;;;25.00;65.30;;;;;;4936333;29;20477;-84
2023/06/13 12:20:47;;;;;;;4.90;2.23;;;25.20;64.50;;;;;;4947705;28;20432;-85
2023/06/13 12:23:12;;;;;;;4.70;2.77;;;25.40;65.50;;;;;;4946139;28;20239;-84
2023/06/13 12:25:40;;;;;;;2.20;2.07;;;25.60;65.30;;;;;;4944366;29;20463;-85
2023/06/13 12:28:06;;;;;;;3.20;1.57;;;25.80;63.10;;;;;;4943720;29;20331;-82
2023/06/13 12:30:41;;;;;;;5.77;2.30;;;25.80;62.40;;;;;;4947701;29;20464;-85
2023/06/13 12:33:07;;;;;;;2.67;1.70;;;25.80;63.10;;;;;;4943247;29;20521;-84
2023/06/13 12:35:33;;;;;;;1.87;1.60;;;25.80;63.30;;;;;;4949871;28;20439;-83
2023/06/13 12:38:02;;;;;;;1.93;1.67;;;25.90;62.60;;;;;;4943803;29;20534;-85
2023/06/13 12:40:32;;;;;;;3.30;2.13;;;26.00;61.40;;;;;;4941027;29;20191;-83
2023/06/13 12:43:04;;;;;;;2.07;1.93;;;26.10;63.40;;;;;;4945842;29;20443;-83
2023/06/13 12:45:33;;;;;;;2.27;2.07;;;26.10;61.60;;;;;;4931950;29;20450;-85
2023/06/13 12:47:59;;;;;;;2.27;1.87;;;26.10;62.00;;;;;;4939808;29;20431;-82
2023/06/13 12:50:28;;;;;;;4.10;2.60;;;26.20;62.40;;;;;;4952537;29;21091;-84
2023/06/13 12:53:23;;;;;;;3.60;2.40;;;26.30;62.10;;;;;;4940884;29;20981;-85
2023/06/13 12:55:50;;;;;;;2.90;2.07;;;26.40;62.30;;;;;;4934439;29;20495;-85
2023/06/13 12:58:35;;;;;;;2.20;1.40;;;26.60;62.40;;;;;;4933929;29;20535;-85
2023/06/13 13:01:07;;;;;;;2.27;2.07;;;26.70;61.40;;;;;;4937195;28;20498;-86
2023/06/13 13:03:34;;;;;;;2.53;1.53;;;26.80;61.40;;;;;;4934720;29;20447;-86
2023/06/13 13:06:01;;;;;;;4.00;2.07;;;26.80;60.70;;;;;;4946200;29;20514;-83
2023/06/13 13:08:28;;;;;;;3.77;1.80;;;26.80;60.70;;;;;;4944993;29;20515;-85
2023/06/13 13:10:55;;;;;;;2.50;1.83;;;26.80;59.90;;;;;;4940362;29;20509;-86
2023/06/13 13:13:22;;;;;;;2.90;1.80;;;26.70;59.80;;;;;;4935257;29;20431;-83
2023/06/13 13:15:47;;;;;;;1.70;1.60;;;26.60;61.00;;;;;;4941501;29;20451;-86
2023/06/13 13:18:13;;;;;;;1.20;1.13;;;26.70;61.60;;;;;;4943350;29;20462;-85
2023/06/13 13:20:39;;;;;;;3.07;1.93;;;26.80;60.00;;;;;;4935794;29;20803;-82
2023/06/13 13:23:05;;;;;;;8.10;2.60;;;26.80;59.60;;;;;;4947923;28;20201;-85
2023/06/13 13:25:31;;;;;;;2.20;1.57;;;26.60;59.60;;;;;;4937444;29;20852;-85
2023/06/13 13:27:56;;;;;;;6.53;2.27;;;26.50;61.30;;;;;;4947127;29;20179;-85
2023/06/13 13:30:22;;;;;;;1.83;1.73;;;26.50;60.30;;;;;;4945094;29;20770;-85
2023/06/13 13:32:50;;;;;;;3.67;1.83;;;26.50;59.90;;;;;;4948436;29;20266;-86
2023/06/13 13:35:16;;;;;;;1.87;1.80;;;26.50;59.70;;;;;;4940320;29;20196;-85
2023/06/13 13:37:42;;;;;;;10.53;2.67;;;26.50;61.20;;;;;;4941540;29;20470;-86
2023/06/13 13:40:08;;;;;;;1.73;1.67;;;26.40;61.40;;;;;;4947143;29;20424;-83
2023/06/13 13:42:36;;;;;;;1.90;1.80;;;26.40;61.80;;;;;;4938265;29;20180;-86
2023/06/13 13:45:06;;;;;;;4.20;2.47;;;26.60;62.00;;;;;;4945006;29;20444;-85
2023/06/13 13:47:33;;;;;;;2.47;2.20;;;26.60;61.40;;;;;;4939581;29;20487;-84
2023/06/13 13:49:58;;;;;;;2.00;1.90;;;26.40;61.60;;;;;;4944951;29;20430;-85
2023/06/13 13:52:24;;;;;;;2.33;1.97;;;26.20;60.90;;;;;;4949831;29;20510;-83
2023/06/13 13:54:51;;;;;;;3.53;2.00;;;25.80;61.50;;;;;;4940715;29;20286;-83
2023/06/13 13:57:17;;;;;;;2.87;1.90;;;25.80;62.10;;;;;;4952347;29;20506;-83
2023/06/13 13:59:44;;;;;;;2.13;1.90;;;25.80;62.30;;;;;;4940703;29;20553;-81
2023/06/13 14:02:10;;;;;;;3.30;1.87;;;26.00;63.00;;;;;;4948645;28;20175;-82
2023/06/13 14:04:36;;;;;;;1.63;1.30;;;26.30;63.20;;;;;;4936710;29;20439;-82
2023/06/13 14:07:01;;;;;;;4.20;2.50;;;26.50;62.60;;;;;;4945817;29;20187;-81
2023/06/13 14:09:27;;;;;;;1.87;1.77;;;26.60;61.10;;;;;;4937971;29;20184;-84
2023/06/13 14:11:52;;;;;;;2.47;2.27;;;26.50;61.20;;;;;;4939639;29;20187;-85
2023/06/13 14:14:18;;;;;;;2.23;1.83;;;26.20;61.40;;;;;;4942930;29;20231;-85
2023/06/13 14:16:44;;;;;;;1.53;1.50;;;25.90;61.40;;;;;;4948666;29;20192;-81
2023/06/13 14:19:10;;;;;;;2.17;1.90;;;25.90;62.90;;;;;;4949112;29;20208;-83
2023/06/13 14:21:35;;;;;;;1.63;1.53;;;25.90;62.00;;;;;;4940333;29;20680;-84
2023/06/13 14:24:01;;;;;;;3.60;1.60;;;26.10;61.50;;;;;;4951890;29;20225;-85
2023/06/13 14:26:27;;;;;;;1.67;1.60;;;26.20;61.80;;;;;;4946398;29;20234;-85
2023/06/13 14:28:53;;;;;;;2.23;2.03;;;26.40;61.80;;;;;;4944569;28;20190;-84
2023/06/13 14:31:19;;;;;;;1.47;1.43;;;26.60;62.20;;;;;;4939637;29;20190;-84
2023/06/13 14:33:45;;;;;;;3.97;2.30;;;26.70;61.80;;;;;;4952254;28;20419;-84
2023/06/13 14:36:11;;;;;;;1.40;1.30;;;26.80;61.50;;;;;;4944809;29;20448;-81
2023/06/13 14:38:41;;;;;;;5.37;2.03;;;26.90;60.80;;;;;;4952870;29;20211;-84
2023/06/13 14:41:10;;;;;;;2.30;2.00;;;27.00;61.20;;;;;;4947018;29;20187;-84
2023/06/13 14:43:36;;;;;;;1.77;1.60;;;27.10;61.00;;;;;;4934962;29;20423;-84
2023/06/13 14:46:04;;;;;;;2.73;2.07;;;27.20;60.40;;;;;;4934490;29;20447;-82
2023/06/13 14:48:30;;;;;;;2.10;1.53;;;27.20;59.90;;;;;;4944299;29;20214;-85
2023/06/13 14:50:56;;;;;;;4.10;1.83;;;27.30;60.80;;;;;;4947939;29;20423;-85
2023/06/13 14:53:22;;;;;;;2.40;2.20;;;27.30;60.20;;;;;;4952785;29;20431;-85
2023/06/13 14:55:47;;;;;;;5.10;2.33;;;27.30;60.00;;;;;;4947908;29;20820;-85
2023/06/13 14:58:13;;;;;;;12.03;1.87;;;27.10;60.10;;;;;;4948944;29;20663;-85
2023/06/13 15:00:38;;;;;;;3.20;1.60;;;26.90;59.00;;;;;;4938319;29;20192;-85
2023/06/13 15:03:04;;;;;;;2.53;1.57;;;26.70;61.40;;;;;;4943140;29;20184;-85
2023/06/13 15:05:29;;;;;;;2.40;2.10;;;26.70;61.10;;;;;;4942770;29;20335;-84
2023/06/13 15:07:55;;;;;;;3.07;1.80;;;26.80;60.00;;;;;;4951789;29;20191;-84
2023/06/13 15:10:20;;;;;;;2.53;1.87;;;26.80;60.80;;;;;;4937198;29;20571;-85
2023/06/13 15:12:46;;;;;;;2.50;1.93;;;26.90;61.70;;;;;;4946373;29;20183;-84
2023/06/13 15:15:11;;;;;;;2.23;1.93;;;27.00;60.90;;;;;;4946216;29;20619;-84
2023/06/13 15:17:37;;;;;;;1.77;1.67;;;27.10;60.60;;;;;;4943484;29;20194;-85
2023/06/13 15:20:04;;;;;;;2.23;1.60;;;27.20;61.30;;;;;;4946311;29;20180;-85
2023/06/13 15:22:30;;;;;;;2.80;2.20;;;27.20;60.40;;;;;;4947939;29;20347;-84
2023/06/13 15:24:55;;;;;;;1.30;1.20;;;27.20;60.40;;;;;;4942540;29;20478;-80
2023/06/13 15:27:21;;;;;;;2.17;1.50;;;27.20;60.20;;;;;;4942000;29;20202;-84
2023/06/13 15:29:46;;;;;;;1.50;1.40;;;27.20;60.10;;;;;;4951212;29;20206;-80
2023/06/13 15:32:14;;;;;;;1.80;1.73;;;27.10;59.70;;;;;;4948116;29;20204;-84
2023/06/13 15:34:41;;;;;;;2.83;2.63;;;27.00;59.70;;;;;;4942004;29;20234;-84
2023/06/13 15:37:06;;;;;;;2.30;2.10;;;26.90;59.70;;;;;;4942544;29;20490;-84
2023/06/13 15:39:32;;;;;;;1.80;1.60;;;26.90;61.30;;;;;;4937421;29;20468;-84
2023/06/13 15:41:57;;;;;;;4.47;2.90;;;26.90;60.00;;;;;;4935667;29;20200;-85
2023/06/13 15:44:23;;;;;;;2.00;1.70;;;27.00;59.70;;;;;;4941163;28;20555;-84
2023/06/13 15:46:48;;;;;;;4.03;2.37;;;27.10;60.00;;;;;;4943643;29;20191;-85
2023/06/13 15:49:14;;;;;;;1.63;1.53;;;27.10;59.60;;;;;;4950653;29;20197;-85
2023/06/13 15:51:39;;;;;;;1.97;1.67;;;27.10;59.30;;;;;;4939225;29;20195;-85
2023/06/13 15:54:05;;;;;;;2.20;1.83;;;27.10;59.90;;;;;;4937559;29;20203;-84
2023/06/13 15:56:30;;;;;;;2.83;2.30;;;27.10;59.90;;;;;;4951650;29;20194;-85
2023/06/13 15:58:56;;;;;;;8.43;2.90;;;27.10;60.10;;;;;;4938874;29;20195;-84
2023/06/13 16:01:22;;;;;;;3.27;2.20;;;27.10;59.20;;;;;;4941395;29;20274;-83
2023/06/13 16:03:48;;;;;;;3.80;2.50;;;27.00;59.20;;;;;;4945862;29;20172;-80
2023/06/13 16:06:14;;;;;;;4.13;2.20;;;26.90;59.90;;;;;;4939250;29;20572;-84
2023/06/13 16:08:42;;;;;;;3.20;2.13;;;26.80;60.20;;;;;;4941466;29;20435;-84
2023/06/13 16:11:08;;;;;;;2.50;1.60;;;26.70;60.10;;;;;;4942446;29;20182;-84
2023/06/13 16:13:33;;;;;;;1.80;1.70;;;26.60;59.10;;;;;;4940142;29;20435;-84
2023/06/13 16:15:59;;;;;;;1.33;1.23;;;26.50;59.50;;;;;;4947004;29;20242;-84
2023/06/13 16:18:24;;;;;;;2.20;2.03;;;26.50;59.80;;;;;;4942347;29;20211;-84
2023/06/13 16:20:50;;;;;;;1.40;1.30;;;26.50;60.00;;;;;;4945820;29;20185;-84
2023/06/13 16:23:17;;;;;;;2.10;1.63;;;26.60;61.20;;;;;;4944249;29;20190;-84
2023/06/13 16:25:43;;;;;;;1.73;1.60;;;26.70;59.20;;;;;;4939133;29;20310;-81
2023/06/13 16:28:09;;;;;;;1.73;1.67;;;26.60;59.10;;;;;;4985105;23;20460;-69
2023/06/13 16:30:35;;;;;;;2.00;1.90;;;26.50;59.10;;;;;;4941543;28;20458;-71
2023/06/13 16:33:01;;;;;;;2.90;2.10;;;26.30;59.10;;;;;;4939434;28;20435;-66
2023/06/13 16:35:26;;;;;;;3.10;2.37;;;26.10;58.70;;;;;;4943128;29;20428;-71
2023/06/13 16:37:52;;;;;;;1.87;1.20;;;25.90;59.10;;;;;;4937117;29;20200;-72
2023/06/13 16:40:18;;;;;;;7.03;2.97;;;25.80;58.60;;;;;;4942876;29;20227;-73
2023/06/13 16:42:43;;;;;;;3.43;2.10;;;25.70;59.20;;;;;;4938776;29;20629;-72
2023/06/13 16:45:09;;;;;;;3.30;1.93;;;25.70;59.70;;;;;;4935072;29;20198;-71
2023/06/13 16:47:34;;;;;;;1.70;1.60;;;25.80;59.60;;;;;;4944124;29;20714;-72
2023/06/13 16:50:00;;;;;;;2.60;2.30;;;25.70;59.30;;;;;;4938476;29;20172;-71
2023/06/13 16:52:26;;;;;;;1.57;1.47;;;25.50;60.30;;;;;;4944137;29;20286;-70
2023/06/13 16:54:51;;;;;;;1.63;1.53;;;25.40;61.60;;;;;;4944125;28;20179;-70
2023/06/13 16:57:17;;;;;;;1.67;1.63;;;25.20;62.40;;;;;;4944149;29;20537;-73
2023/06/13 16:59:42;;;;;;;3.23;2.13;;;25.00;63.20;;;;;;4945549;29;20289;-73